sensor_id;sensor_type;location;lat;lon;timestamp;temperature;humidity
12971;DHT22;6550;48.650;8.774;2022-12-07T00:01:39;6.40;99.90
12971;DHT22;6550;48.650;8.774;2022-12-07T00:04:09;6.50;99.90
12971;DHT22;6550;48.650;8.774;2022-12-07T00:06:41;6.50;99.90
12971;DHT22;6550;48.650;8.774;2022-12-07T00:09:11;6.50;99.90
12971;DHT22;6550;48.650;8.774;2022-12-07T00:11:41;6.50;99.90
12971;DHT22;6550;48.650;8.774;2022-12-07T00:14:13;6.40;99.90
12971;DHT22;6550;48.650;8.774;2022-12-07T00:16:44;6.40;99.90
12971;DHT22;6550;48.650;8.774;2022-12-07T00:19:12;6.40;99.90
12971;DHT22;6550;48.650;8.774;2022-12-07T00:21:40;6.40;99.90
12971;DHT22;6550;48.650;8.774;2022-12-07T00:24:09;6.40;99.90
12971;DHT22;6550;48.650;8.774;2022-12-07T00:26:40;6.40;99.90
12971;DHT22;6550;48.650;8.774;2022-12-07T00:29:18;6.40;99.90
12971;DHT22;6550;48.650;8.774;2022-12-07T00:31:46;6.40;99.90
12971;DHT22;6550;48.650;8.774;2022-12-07T00:34:16;6.40;99.90
12971;DHT22;6550;48.650;8.774;2022-12-07T00:36:43;6.40;99.90
12971;DHT22;6550;48.650;8.774;2022-12-07T00:39:12;6.50;99.90
12971;DHT22;6550;48.650;8.774;2022-12-07T00:41:41;6.50;99.90
12971;DHT22;6550;48.650;8.774;2022-12-07T00:44:13;6.50;99.90
12971;DHT22;6550;48.650;8.774;2022-12-07T00:46:39;6.40;99.90
12971;DHT22;6550;48.650;8.774;2022-12-07T00:49:09;6.40;99.90
12971;DHT22;6550;48.650;8.774;2022-12-07T00:51:35;6.40;99.90
12971;DHT22;6550;48.650;8.774;2022-12-07T00:54:07;6.40;99.90
12971;DHT22;6550;48.650;8.774;2022-12-07T00:56:36;6.30;99.90
12971;DHT22;6550;48.650;8.774;2022-12-07T00:59:05;6.30;99.90
12971;DHT22;6550;48.650;8.774;2022-12-07T01:01:35;6.30;99.90
12971;DHT22;6550;48.650;8.774;2022-12-07T01:04:02;6.30;99.90
12971;DHT22;6550;48.650;8.774;2022-12-07T01:06:32;6.40;99.90
12971;DHT22;6550;48.650;8.774;2022-12-07T01:09:02;6.40;99.90
12971;DHT22;6550;48.650;8.774;2022-12-07T01:11:30;6.40;99.90
12971;DHT22;6550;48.650;8.774;2022-12-07T01:13:58;6.40;99.90
12971;DHT22;6550;48.650;8.774;2022-12-07T01:16:30;6.40;99.90
12971;DHT22;6550;48.650;8.774;2022-12-07T01:18:58;6.40;99.90
12971;DHT22;6550;48.650;8.774;2022-12-07T01:21:28;6.40;99.90
12971;DHT22;6550;48.650;8.774;2022-12-07T01:23:57;6.40;99.90
12971;DHT22;6550;48.650;8.774;2022-12-07T01:26:25;6.30;99.90
12971;DHT22;6550;48.650;8.774;2022-12-07T01:28:52;6.30;99.90
12971;DHT22;6550;48.650;8.774;2022-12-07T01:31:23;6.30;99.90
12971;DHT22;6550;48.650;8.774;2022-12-07T01:33:55;6.30;99.90
12971;DHT22;6550;48.650;8.774;2022-12-07T01:36:23;6.30;99.90
12971;DHT22;6550;48.650;8.774;2022-12-07T01:38:56;6.30;99.90
12971;DHT22;6550;48.650;8.774;2022-12-07T01:41:28;6.30;99.90
12971;DHT22;6550;48.650;8.774;2022-12-07T01:46:42;6.30;99.90
12971;DHT22;6550;48.650;8.774;2022-12-07T01:49:16;6.30;99.90
12971;DHT22;6550;48.650;8.774;2022-12-07T01:51:46;6.30;99.90
12971;DHT22;6550;48.650;8.774;2022-12-07T01:54:19;6.30;99.90
12971;DHT22;6550;48.650;8.774;2022-12-07T01:56:52;6.30;99.90
12971;DHT22;6550;48.650;8.774;2022-12-07T01:59:22;6.20;99.90
12971;DHT22;6550;48.650;8.774;2022-12-07T02:01:51;6.20;99.90
12971;DHT22;6550;48.650;8.774;2022-12-07T02:04:19;6.20;99.90
12971;DHT22;6550;48.650;8.774;2022-12-07T02:06:46;6.20;99.90
12971;DHT22;6550;48.650;8.774;2022-12-07T02:09:18;6.20;99.90
12971;DHT22;6550;48.650;8.774;2022-12-07T02:11:45;6.20;99.90
12971;DHT22;6550;48.650;8.774;2022-12-07T02:14:12;6.20;99.90
12971;DHT22;6550;48.650;8.774;2022-12-07T02:20:00;6.20;99.90
12971;DHT22;6550;48.650;8.774;2022-12-07T02:25:47;6.20;99.90
12971;DHT22;6550;48.650;8.774;2022-12-07T02:30:55;6.20;99.90
12971;DHT22;6550;48.650;8.774;2022-12-07T02:33:33;6.20;99.90
12971;DHT22;6550;48.650;8.774;2022-12-07T02:36:13;6.20;99.90
12971;DHT22;6550;48.650;8.774;2022-12-07T02:41:25;6.10;99.90
12971;DHT22;6550;48.650;8.774;2022-12-07T02:43:55;6.10;99.90
12971;DHT22;6550;48.650;8.774;2022-12-07T02:46:27;6.10;99.90
12971;DHT22;6550;48.650;8.774;2022-12-07T02:49:03;6.10;99.90
12971;DHT22;6550;48.650;8.774;2022-12-07T02:51:31;6.10;99.90
12971;DHT22;6550;48.650;8.774;2022-12-07T02:53:59;6.10;99.90
12971;DHT22;6550;48.650;8.774;2022-12-07T03:09:45;6.00;99.90
12971;DHT22;6550;48.650;8.774;2022-12-07T03:12:22;6.00;99.90
12971;DHT22;6550;48.650;8.774;2022-12-07T03:15:00;6.00;99.90
12971;DHT22;6550;48.650;8.774;2022-12-07T03:17:30;6.00;99.90
12971;DHT22;6550;48.650;8.774;2022-12-07T03:20:03;6.00;99.90
12971;DHT22;6550;48.650;8.774;2022-12-07T03:22:34;5.90;99.90
12971;DHT22;6550;48.650;8.774;2022-12-07T03:25:06;6.00;99.90
12971;DHT22;6550;48.650;8.774;2022-12-07T03:28:04;6.00;99.90
12971;DHT22;6550;48.650;8.774;2022-12-07T03:30:36;6.00;99.90
12971;DHT22;6550;48.650;8.774;2022-12-07T03:33:18;6.00;99.90
12971;DHT22;6550;48.650;8.774;2022-12-07T03:36:11;6.00;99.90
12971;DHT22;6550;48.650;8.774;2022-12-07T03:38:47;6.00;99.90
12971;DHT22;6550;48.650;8.774;2022-12-07T03:41:23;6.00;99.90
12971;DHT22;6550;48.650;8.774;2022-12-07T03:43:53;6.00;99.90
12971;DHT22;6550;48.650;8.774;2022-12-07T03:49:43;6.00;99.90
12971;DHT22;6550;48.650;8.774;2022-12-07T03:55:25;5.90;99.90
12971;DHT22;6550;48.650;8.774;2022-12-07T03:57:58;5.80;99.90
12971;DHT22;6550;48.650;8.774;2022-12-07T04:00:26;5.90;99.90
12971;DHT22;6550;48.650;8.774;2022-12-07T04:02:53;5.90;99.90
12971;DHT22;6550;48.650;8.774;2022-12-07T04:05:20;5.90;99.90
12971;DHT22;6550;48.650;8.774;2022-12-07T04:07:47;5.90;99.90
12971;DHT22;6550;48.650;8.774;2022-12-07T04:10:14;5.90;99.90
12971;DHT22;6550;48.650;8.774;2022-12-07T04:12:41;5.90;99.90
12971;DHT22;6550;48.650;8.774;2022-12-07T04:15:08;5.90;99.90
12971;DHT22;6550;48.650;8.774;2022-12-07T04:17:37;5.90;99.90
12971;DHT22;6550;48.650;8.774;2022-12-07T04:20:07;5.90;99.90
12971;DHT22;6550;48.650;8.774;2022-12-07T04:22:36;5.90;99.90
12971;DHT22;6550;48.650;8.774;2022-12-07T04:25:06;5.90;99.90
12971;DHT22;6550;48.650;8.774;2022-12-07T04:27:32;5.90;99.90
12971;DHT22;6550;48.650;8.774;2022-12-07T04:29:59;5.80;99.90
12971;DHT22;6550;48.650;8.774;2022-12-07T04:32:27;5.70;99.90
12971;DHT22;6550;48.650;8.774;2022-12-07T04:34:54;5.70;99.90
12971;DHT22;6550;48.650;8.774;2022-12-07T04:37:23;5.70;99.90
12971;DHT22;6550;48.650;8.774;2022-12-07T04:39:50;5.70;99.90
12971;DHT22;6550;48.650;8.774;2022-12-07T04:42:17;5.70;99.90
12971;DHT22;6550;48.650;8.774;2022-12-07T04:44:44;5.70;99.90
12971;DHT22;6550;48.650;8.774;2022-12-07T04:47:13;5.70;99.90
12971;DHT22;6550;48.650;8.774;2022-12-07T04:49:40;5.80;99.90
12971;DHT22;6550;48.650;8.774;2022-12-07T04:52:06;5.70;99.90
12971;DHT22;6550;48.650;8.774;2022-12-07T04:54:33;5.70;99.90
12971;DHT22;6550;48.650;8.774;2022-12-07T04:57:02;5.70;99.90
12971;DHT22;6550;48.650;8.774;2022-12-07T04:59:29;5.60;99.90
12971;DHT22;6550;48.650;8.774;2022-12-07T05:01:58;5.50;99.90
12971;DHT22;6550;48.650;8.774;2022-12-07T05:04:24;5.50;99.90
12971;DHT22;6550;48.650;8.774;2022-12-07T05:06:51;5.40;99.90
12971;DHT22;6550;48.650;8.774;2022-12-07T05:09:21;5.40;99.90
12971;DHT22;6550;48.650;8.774;2022-12-07T05:11:47;5.40;99.90
12971;DHT22;6550;48.650;8.774;2022-12-07T05:14:19;5.30;99.90
12971;DHT22;6550;48.650;8.774;2022-12-07T05:16:50;5.30;99.90
12971;DHT22;6550;48.650;8.774;2022-12-07T05:19:19;5.30;99.90
12971;DHT22;6550;48.650;8.774;2022-12-07T05:21:48;5.30;99.90
12971;DHT22;6550;48.650;8.774;2022-12-07T05:24:16;5.30;99.90
12971;DHT22;6550;48.650;8.774;2022-12-07T05:26:44;5.30;99.90
12971;DHT22;6550;48.650;8.774;2022-12-07T05:29:16;5.20;99.90
12971;DHT22;6550;48.650;8.774;2022-12-07T05:31:45;5.20;99.90
12971;DHT22;6550;48.650;8.774;2022-12-07T05:34:12;5.10;99.90
12971;DHT22;6550;48.650;8.774;2022-12-07T05:36:39;5.10;99.90
12971;DHT22;6550;48.650;8.774;2022-12-07T05:39:06;5.00;99.90
12971;DHT22;6550;48.650;8.774;2022-12-07T05:41:33;5.00;99.90
12971;DHT22;6550;48.650;8.774;2022-12-07T05:44:19;4.90;99.90
12971;DHT22;6550;48.650;8.774;2022-12-07T05:46:45;4.90;99.90
12971;DHT22;6550;48.650;8.774;2022-12-07T05:49:12;4.80;99.90
12971;DHT22;6550;48.650;8.774;2022-12-07T05:51:42;4.80;99.90
12971;DHT22;6550;48.650;8.774;2022-12-07T05:54:13;4.80;99.90
12971;DHT22;6550;48.650;8.774;2022-12-07T05:56:42;4.80;99.90
12971;DHT22;6550;48.650;8.774;2022-12-07T05:59:14;4.80;99.90
12971;DHT22;6550;48.650;8.774;2022-12-07T06:04:20;4.80;99.90
12971;DHT22;6550;48.650;8.774;2022-12-07T06:06:47;4.80;99.90
12971;DHT22;6550;48.650;8.774;2022-12-07T06:09:16;4.70;99.90
12971;DHT22;6550;48.650;8.774;2022-12-07T06:11:45;4.70;99.90
12971;DHT22;6550;48.650;8.774;2022-12-07T06:14:30;4.70;99.90
12971;DHT22;6550;48.650;8.774;2022-12-07T06:16:58;4.70;99.90
12971;DHT22;6550;48.650;8.774;2022-12-07T06:19:28;4.70;99.90
12971;DHT22;6550;48.650;8.774;2022-12-07T06:21:55;4.60;99.90
12971;DHT22;6550;48.650;8.774;2022-12-07T06:24:21;4.60;99.90
12971;DHT22;6550;48.650;8.774;2022-12-07T06:26:51;4.60;99.90
12971;DHT22;6550;48.650;8.774;2022-12-07T06:29:18;4.60;99.90
12971;DHT22;6550;48.650;8.774;2022-12-07T06:31:45;4.70;99.90
12971;DHT22;6550;48.650;8.774;2022-12-07T06:34:15;4.70;99.90
12971;DHT22;6550;48.650;8.774;2022-12-07T06:36:42;4.70;99.90
12971;DHT22;6550;48.650;8.774;2022-12-07T06:39:14;4.70;99.90
12971;DHT22;6550;48.650;8.774;2022-12-07T06:41:40;4.70;99.90
12971;DHT22;6550;48.650;8.774;2022-12-07T06:44:07;4.60;99.90
12971;DHT22;6550;48.650;8.774;2022-12-07T06:46:36;4.70;99.90
12971;DHT22;6550;48.650;8.774;2022-12-07T06:49:06;4.60;99.90
12971;DHT22;6550;48.650;8.774;2022-12-07T06:51:34;4.60;99.90
12971;DHT22;6550;48.650;8.774;2022-12-07T06:54:11;4.60;99.90
12971;DHT22;6550;48.650;8.774;2022-12-07T06:56:39;4.60;99.90
12971;DHT22;6550;48.650;8.774;2022-12-07T06:59:06;4.60;99.90
12971;DHT22;6550;48.650;8.774;2022-12-07T07:01:34;4.60;99.90
12971;DHT22;6550;48.650;8.774;2022-12-07T07:04:02;4.60;99.90
12971;DHT22;6550;48.650;8.774;2022-12-07T07:06:34;4.70;99.90
12971;DHT22;6550;48.650;8.774;2022-12-07T07:09:01;4.70;99.90
12971;DHT22;6550;48.650;8.774;2022-12-07T07:11:30;4.80;99.90
12971;DHT22;6550;48.650;8.774;2022-12-07T07:13:59;4.80;99.90
12971;DHT22;6550;48.650;8.774;2022-12-07T07:16:29;4.80;99.90
12971;DHT22;6550;48.650;8.774;2022-12-07T07:18:57;4.80;99.90
12971;DHT22;6550;48.650;8.774;2022-12-07T07:21:24;4.90;99.90
12971;DHT22;6550;48.650;8.774;2022-12-07T07:23:51;4.80;99.90
12971;DHT22;6550;48.650;8.774;2022-12-07T07:26:18;4.70;99.90
12971;DHT22;6550;48.650;8.774;2022-12-07T07:28:49;4.70;99.90
12971;DHT22;6550;48.650;8.774;2022-12-07T07:31:15;4.70;99.90
12971;DHT22;6550;48.650;8.774;2022-12-07T07:33:42;4.80;99.90
12971;DHT22;6550;48.650;8.774;2022-12-07T07:36:09;4.70;99.90
12971;DHT22;6550;48.650;8.774;2022-12-07T07:38:35;4.70;99.90
12971;DHT22;6550;48.650;8.774;2022-12-07T07:41:02;4.70;99.90
12971;DHT22;6550;48.650;8.774;2022-12-07T07:43:31;6.10;99.90
12971;DHT22;6550;48.650;8.774;2022-12-07T07:45:58;4.90;99.90
12971;DHT22;6550;48.650;8.774;2022-12-07T07:48:27;4.90;99.90
12971;DHT22;6550;48.650;8.774;2022-12-07T07:50:56;4.90;99.90
12971;DHT22;6550;48.650;8.774;2022-12-07T07:53:23;5.00;99.90
12971;DHT22;6550;48.650;8.774;2022-12-07T07:55:52;4.90;99.90
12971;DHT22;6550;48.650;8.774;2022-12-07T07:58:20;4.90;99.90
12971;DHT22;6550;48.650;8.774;2022-12-07T08:00:47;4.90;99.90
12971;DHT22;6550;48.650;8.774;2022-12-07T08:03:14;4.90;99.90
12971;DHT22;6550;48.650;8.774;2022-12-07T08:05:43;4.90;99.90
12971;DHT22;6550;48.650;8.774;2022-12-07T08:08:09;5.00;99.90
12971;DHT22;6550;48.650;8.774;2022-12-07T08:10:36;5.00;99.90
12971;DHT22;6550;48.650;8.774;2022-12-07T08:13:03;5.00;99.90
12971;DHT22;6550;48.650;8.774;2022-12-07T08:15:44;4.90;99.90
12971;DHT22;6550;48.650;8.774;2022-12-07T08:18:12;5.00;99.90
12971;DHT22;6550;48.650;8.774;2022-12-07T08:20:42;5.00;99.90
12971;DHT22;6550;48.650;8.774;2022-12-07T08:23:09;5.00;99.90
12971;DHT22;6550;48.650;8.774;2022-12-07T08:25:41;5.10;99.90
12971;DHT22;6550;48.650;8.774;2022-12-07T08:28:11;5.10;99.90
12971;DHT22;6550;48.650;8.774;2022-12-07T08:30:40;5.20;99.90
12971;DHT22;6550;48.650;8.774;2022-12-07T08:33:06;5.20;99.90
12971;DHT22;6550;48.650;8.774;2022-12-07T08:35:36;5.20;99.90
12971;DHT22;6550;48.650;8.774;2022-12-07T08:38:03;5.20;99.90
12971;DHT22;6550;48.650;8.774;2022-12-07T08:40:30;5.20;99.90
12971;DHT22;6550;48.650;8.774;2022-12-07T08:42:57;5.20;99.90
12971;DHT22;6550;48.650;8.774;2022-12-07T08:45:23;5.30;99.90
12971;DHT22;6550;48.650;8.774;2022-12-07T08:48:01;5.30;99.90
12971;DHT22;6550;48.650;8.774;2022-12-07T08:50:31;5.40;99.90
12971;DHT22;6550;48.650;8.774;2022-12-07T08:53:00;5.40;99.90
12971;DHT22;6550;48.650;8.774;2022-12-07T08:55:27;5.50;99.90
12971;DHT22;6550;48.650;8.774;2022-12-07T08:57:57;5.50;99.90
12971;DHT22;6550;48.650;8.774;2022-12-07T09:00:27;5.60;99.90
12971;DHT22;6550;48.650;8.774;2022-12-07T09:02:56;5.70;99.90
12971;DHT22;6550;48.650;8.774;2022-12-07T09:05:23;5.70;99.90
12971;DHT22;6550;48.650;8.774;2022-12-07T09:07:51;5.80;99.90
12971;DHT22;6550;48.650;8.774;2022-12-07T09:10:26;6.00;99.90
12971;DHT22;6550;48.650;8.774;2022-12-07T09:12:53;6.20;99.90
12971;DHT22;6550;48.650;8.774;2022-12-07T09:15:22;6.20;99.90
12971;DHT22;6550;48.650;8.774;2022-12-07T09:17:51;6.40;99.90
12971;DHT22;6550;48.650;8.774;2022-12-07T09:20:18;6.40;99.90
12971;DHT22;6550;48.650;8.774;2022-12-07T09:22:52;6.40;99.90
12971;DHT22;6550;48.650;8.774;2022-12-07T09:25:19;6.40;99.90
12971;DHT22;6550;48.650;8.774;2022-12-07T09:27:46;6.40;99.90
12971;DHT22;6550;48.650;8.774;2022-12-07T09:30:17;6.40;99.90
12971;DHT22;6550;48.650;8.774;2022-12-07T09:32:44;6.50;99.90
12971;DHT22;6550;48.650;8.774;2022-12-07T09:35:13;6.60;99.90
12971;DHT22;6550;48.650;8.774;2022-12-07T09:37:40;6.60;99.90
12971;DHT22;6550;48.650;8.774;2022-12-07T09:40:07;6.60;99.90
12971;DHT22;6550;48.650;8.774;2022-12-07T09:42:36;6.70;99.90
12971;DHT22;6550;48.650;8.774;2022-12-07T09:45:06;6.70;99.90
12971;DHT22;6550;48.650;8.774;2022-12-07T09:47:33;6.80;99.90
12971;DHT22;6550;48.650;8.774;2022-12-07T09:50:06;6.90;99.90
12971;DHT22;6550;48.650;8.774;2022-12-07T09:52:34;6.90;99.90
12971;DHT22;6550;48.650;8.774;2022-12-07T09:55:11;6.90;99.90
12971;DHT22;6550;48.650;8.774;2022-12-07T09:57:38;7.00;99.90
12971;DHT22;6550;48.650;8.774;2022-12-07T10:00:16;7.00;99.90
12971;DHT22;6550;48.650;8.774;2022-12-07T10:03:00;7.10;99.90
12971;DHT22;6550;48.650;8.774;2022-12-07T10:05:31;7.10;99.90
12971;DHT22;6550;48.650;8.774;2022-12-07T10:07:59;7.20;99.90
12971;DHT22;6550;48.650;8.774;2022-12-07T10:10:32;8.90;99.90
12971;DHT22;6550;48.650;8.774;2022-12-07T10:23:37;7.90;99.90
12971;DHT22;6550;48.650;8.774;2022-12-07T10:29:20;7.80;99.90
12971;DHT22;6550;48.650;8.774;2022-12-07T10:31:54;7.80;99.90
12971;DHT22;6550;48.650;8.774;2022-12-07T10:34:25;7.70;99.90
12971;DHT22;6550;48.650;8.774;2022-12-07T10:36:53;7.70;99.90
12971;DHT22;6550;48.650;8.774;2022-12-07T10:39:51;7.70;99.90
12971;DHT22;6550;48.650;8.774;2022-12-07T10:42:26;7.80;99.90
12971;DHT22;6550;48.650;8.774;2022-12-07T10:49:01;7.90;99.90
12971;DHT22;6550;48.650;8.774;2022-12-07T10:51:07;8.00;99.90
12971;DHT22;6550;48.650;8.774;2022-12-07T10:58:47;8.20;99.90
12971;DHT22;6550;48.650;8.774;2022-12-07T11:01:33;8.20;99.90
12971;DHT22;6550;48.650;8.774;2022-12-07T11:16:07;8.40;99.90
12971;DHT22;6550;48.650;8.774;2022-12-07T11:21:39;8.60;99.90
12971;DHT22;6550;48.650;8.774;2022-12-07T11:24:20;8.70;99.90
12971;DHT22;6550;48.650;8.774;2022-12-07T11:37:11;8.70;99.90
12971;DHT22;6550;48.650;8.774;2022-12-07T11:39:48;8.70;99.90
12971;DHT22;6550;48.650;8.774;2022-12-07T11:42:27;8.70;99.90
12971;DHT22;6550;48.650;8.774;2022-12-07T11:45:02;8.70;99.90
12971;DHT22;6550;48.650;8.774;2022-12-07T11:47:48;8.70;99.90
12971;DHT22;6550;48.650;8.774;2022-12-07T11:53:26;8.90;99.90
12971;DHT22;6550;48.650;8.774;2022-12-07T11:58:23;8.90;99.90
12971;DHT22;6550;48.650;8.774;2022-12-07T12:01:14;8.80;99.90
12971;DHT22;6550;48.650;8.774;2022-12-07T12:06:44;8.80;99.90
12971;DHT22;6550;48.650;8.774;2022-12-07T12:20:23;8.70;99.90
12971;DHT22;6550;48.650;8.774;2022-12-07T12:23:01;8.70;99.90
12971;DHT22;6550;48.650;8.774;2022-12-07T12:25:41;8.70;99.90
12971;DHT22;6550;48.650;8.774;2022-12-07T12:34:02;8.60;99.90
12971;DHT22;6550;48.650;8.774;2022-12-07T12:47:01;8.60;99.90
12971;DHT22;6550;48.650;8.774;2022-12-07T12:52:00;8.60;99.90
12971;DHT22;6550;48.650;8.774;2022-12-07T12:54:31;8.60;99.90
12971;DHT22;6550;48.650;8.774;2022-12-07T13:02:27;8.80;99.90
12971;DHT22;6550;48.650;8.774;2022-12-07T13:10:25;8.80;99.90
12971;DHT22;6550;48.650;8.774;2022-12-07T13:15:50;8.90;99.90
12971;DHT22;6550;48.650;8.774;2022-12-07T13:18:38;8.90;99.90
12971;DHT22;6550;48.650;8.774;2022-12-07T13:31:41;8.80;99.90
12971;DHT22;6550;48.650;8.774;2022-12-07T13:34:31;8.70;99.90
12971;DHT22;6550;48.650;8.774;2022-12-07T13:39:56;8.70;99.90
12971;DHT22;6550;48.650;8.774;2022-12-07T13:42:29;8.70;99.90
12971;DHT22;6550;48.650;8.774;2022-12-07T13:44:57;8.80;99.90
12971;DHT22;6550;48.650;8.774;2022-12-07T13:49:57;8.70;99.90
12971;DHT22;6550;48.650;8.774;2022-12-07T13:52:27;8.60;99.90
12971;DHT22;6550;48.650;8.774;2022-12-07T13:57:35;8.40;99.90
12971;DHT22;6550;48.650;8.774;2022-12-07T14:00:06;8.30;99.90
12971;DHT22;6550;48.650;8.774;2022-12-07T14:05:29;8.20;99.90
12971;DHT22;6550;48.650;8.774;2022-12-07T14:10:31;8.10;99.90
12971;DHT22;6550;48.650;8.774;2022-12-07T14:12:59;8.00;99.90
12971;DHT22;6550;48.650;8.774;2022-12-07T14:15:31;8.00;99.90
12971;DHT22;6550;48.650;8.774;2022-12-07T14:18:02;7.90;99.90
12971;DHT22;6550;48.650;8.774;2022-12-07T14:20:39;7.80;99.90
12971;DHT22;6550;48.650;8.774;2022-12-07T14:23:24;7.70;99.90
12971;DHT22;6550;48.650;8.774;2022-12-07T14:25:52;7.70;99.90
12971;DHT22;6550;48.650;8.774;2022-12-07T14:28:30;7.60;99.90
12971;DHT22;6550;48.650;8.774;2022-12-07T14:31:00;7.50;99.90
12971;DHT22;6550;48.650;8.774;2022-12-07T14:33:30;7.50;99.90
12971;DHT22;6550;48.650;8.774;2022-12-07T14:35:59;7.40;99.90
12971;DHT22;6550;48.650;8.774;2022-12-07T14:38:28;7.40;99.90
12971;DHT22;6550;48.650;8.774;2022-12-07T14:40:56;7.40;99.90
12971;DHT22;6550;48.650;8.774;2022-12-07T14:43:46;7.40;99.90
12971;DHT22;6550;48.650;8.774;2022-12-07T14:46:32;7.30;99.90
12971;DHT22;6550;48.650;8.774;2022-12-07T14:49:02;7.30;99.90
12971;DHT22;6550;48.650;8.774;2022-12-07T14:51:49;7.30;99.90
12971;DHT22;6550;48.650;8.774;2022-12-07T14:54:35;7.20;99.90
12971;DHT22;6550;48.650;8.774;2022-12-07T14:57:02;7.10;99.90
12971;DHT22;6550;48.650;8.774;2022-12-07T14:59:29;7.10;99.90
12971;DHT22;6550;48.650;8.774;2022-12-07T15:01:56;7.10;99.90
12971;DHT22;6550;48.650;8.774;2022-12-07T15:04:27;7.00;99.90
12971;DHT22;6550;48.650;8.774;2022-12-07T15:06:59;6.90;99.90
12971;DHT22;6550;48.650;8.774;2022-12-07T15:09:26;6.90;99.90
12971;DHT22;6550;48.650;8.774;2022-12-07T15:11:53;6.80;99.90
12971;DHT22;6550;48.650;8.774;2022-12-07T15:14:20;6.90;99.90
12971;DHT22;6550;48.650;8.774;2022-12-07T15:16:49;6.80;99.90
12971;DHT22;6550;48.650;8.774;2022-12-07T15:19:34;6.80;99.90
12971;DHT22;6550;48.650;8.774;2022-12-07T15:22:01;6.70;99.90
12971;DHT22;6550;48.650;8.774;2022-12-07T15:24:28;6.70;99.90
12971;DHT22;6550;48.650;8.774;2022-12-07T15:26:57;6.60;99.90
12971;DHT22;6550;48.650;8.774;2022-12-07T15:29:25;6.60;99.90
12971;DHT22;6550;48.650;8.774;2022-12-07T15:31:52;6.60;99.90
12971;DHT22;6550;48.650;8.774;2022-12-07T15:34:24;7.40;99.90
12971;DHT22;6550;48.650;8.774;2022-12-07T15:36:54;6.50;99.90
12971;DHT22;6550;48.650;8.774;2022-12-07T15:39:25;6.50;99.90
12971;DHT22;6550;48.650;8.774;2022-12-07T15:41:52;6.50;99.90
12971;DHT22;6550;48.650;8.774;2022-12-07T15:44:21;6.40;99.90
12971;DHT22;6550;48.650;8.774;2022-12-07T15:47:06;6.40;99.90
12971;DHT22;6550;48.650;8.774;2022-12-07T15:49:33;6.50;99.90
12971;DHT22;6550;48.650;8.774;2022-12-07T15:52:02;6.50;99.90
12971;DHT22;6550;48.650;8.774;2022-12-07T15:54:30;6.50;99.90
12971;DHT22;6550;48.650;8.774;2022-12-07T15:56:58;6.50;99.90
12971;DHT22;6550;48.650;8.774;2022-12-07T15:59:28;6.40;99.90
12971;DHT22;6550;48.650;8.774;2022-12-07T16:01:55;6.40;99.90
12971;DHT22;6550;48.650;8.774;2022-12-07T16:04:22;6.40;99.90
12971;DHT22;6550;48.650;8.774;2022-12-07T16:06:49;6.30;99.90
12971;DHT22;6550;48.650;8.774;2022-12-07T16:09:18;6.30;99.90
12971;DHT22;6550;48.650;8.774;2022-12-07T16:11:45;6.30;99.90
12971;DHT22;6550;48.650;8.774;2022-12-07T16:14:12;6.30;99.90
12971;DHT22;6550;48.650;8.774;2022-12-07T16:16:39;6.20;99.90
12971;DHT22;6550;48.650;8.774;2022-12-07T16:19:07;6.20;99.90
12971;DHT22;6550;48.650;8.774;2022-12-07T16:21:35;6.20;99.90
12971;DHT22;6550;48.650;8.774;2022-12-07T16:24:07;6.30;99.90
12971;DHT22;6550;48.650;8.774;2022-12-07T16:26:36;6.20;99.90
12971;DHT22;6550;48.650;8.774;2022-12-07T16:29:05;9.30;99.90
12971;DHT22;6550;48.650;8.774;2022-12-07T16:31:32;6.20;99.90
12971;DHT22;6550;48.650;8.774;2022-12-07T16:34:00;6.20;99.90
12971;DHT22;6550;48.650;8.774;2022-12-07T16:36:27;6.20;99.90
12971;DHT22;6550;48.650;8.774;2022-12-07T16:39:16;6.10;99.90
12971;DHT22;6550;48.650;8.774;2022-12-07T16:41:44;6.10;99.90
12971;DHT22;6550;48.650;8.774;2022-12-07T16:44:14;6.10;99.90
12971;DHT22;6550;48.650;8.774;2022-12-07T16:46:42;6.00;99.90
12971;DHT22;6550;48.650;8.774;2022-12-07T16:49:15;9.10;99.90
12971;DHT22;6550;48.650;8.774;2022-12-07T16:51:42;7.20;99.90
12971;DHT22;6550;48.650;8.774;2022-12-07T16:54:12;5.90;99.90
12971;DHT22;6550;48.650;8.774;2022-12-07T16:56:39;5.90;99.90
12971;DHT22;6550;48.650;8.774;2022-12-07T16:59:08;5.90;99.90
12971;DHT22;6550;48.650;8.774;2022-12-07T17:01:37;5.90;99.90
12971;DHT22;6550;48.650;8.774;2022-12-07T17:04:04;6.00;99.90
12971;DHT22;6550;48.650;8.774;2022-12-07T17:06:31;6.00;99.90
12971;DHT22;6550;48.650;8.774;2022-12-07T17:08:58;6.00;99.90
12971;DHT22;6550;48.650;8.774;2022-12-07T17:11:28;5.90;99.90
12971;DHT22;6550;48.650;8.774;2022-12-07T17:13:55;5.80;99.90
12971;DHT22;6550;48.650;8.774;2022-12-07T17:16:40;5.80;99.90
12971;DHT22;6550;48.650;8.774;2022-12-07T17:19:09;5.70;99.90
12971;DHT22;6550;48.650;8.774;2022-12-07T17:21:38;5.70;99.90
12971;DHT22;6550;48.650;8.774;2022-12-07T17:24:08;5.60;99.90
12971;DHT22;6550;48.650;8.774;2022-12-07T17:26:35;5.60;99.90
12971;DHT22;6550;48.650;8.774;2022-12-07T17:29:03;5.60;99.90
12971;DHT22;6550;48.650;8.774;2022-12-07T17:31:34;5.50;99.90
12971;DHT22;6550;48.650;8.774;2022-12-07T17:34:07;5.60;99.90
12971;DHT22;6550;48.650;8.774;2022-12-07T17:36:38;5.50;99.90
12971;DHT22;6550;48.650;8.774;2022-12-07T17:39:09;5.60;99.90
12971;DHT22;6550;48.650;8.774;2022-12-07T17:41:39;5.50;99.90
12971;DHT22;6550;48.650;8.774;2022-12-07T17:44:24;5.50;99.90
12971;DHT22;6550;48.650;8.774;2022-12-07T17:46:52;5.60;99.90
12971;DHT22;6550;48.650;8.774;2022-12-07T17:49:29;8.80;99.90
12971;DHT22;6550;48.650;8.774;2022-12-07T17:51:55;5.50;99.90
12971;DHT22;6550;48.650;8.774;2022-12-07T17:54:41;5.40;99.90
12971;DHT22;6550;48.650;8.774;2022-12-07T17:57:08;5.40;99.90
12971;DHT22;6550;48.650;8.774;2022-12-07T17:59:35;5.40;99.90
12971;DHT22;6550;48.650;8.774;2022-12-07T18:02:01;5.30;99.90
12971;DHT22;6550;48.650;8.774;2022-12-07T18:04:29;5.30;99.90
12971;DHT22;6550;48.650;8.774;2022-12-07T18:06:56;5.30;99.90
12971;DHT22;6550;48.650;8.774;2022-12-07T18:09:23;5.30;99.90
12971;DHT22;6550;48.650;8.774;2022-12-07T18:11:49;5.20;99.90
12971;DHT22;6550;48.650;8.774;2022-12-07T18:14:16;5.30;99.90
12971;DHT22;6550;48.650;8.774;2022-12-07T18:16:43;5.30;99.90
12971;DHT22;6550;48.650;8.774;2022-12-07T18:19:11;5.30;99.90
12971;DHT22;6550;48.650;8.774;2022-12-07T18:21:42;5.30;99.90
12971;DHT22;6550;48.650;8.774;2022-12-07T18:24:11;5.30;99.90
12971;DHT22;6550;48.650;8.774;2022-12-07T18:26:40;5.20;99.90
12971;DHT22;6550;48.650;8.774;2022-12-07T18:29:16;5.10;99.90
12971;DHT22;6550;48.650;8.774;2022-12-07T18:31:44;5.10;99.90
12971;DHT22;6550;48.650;8.774;2022-12-07T18:34:17;5.10;99.90
12971;DHT22;6550;48.650;8.774;2022-12-07T18:36:48;5.00;99.90
12971;DHT22;6550;48.650;8.774;2022-12-07T18:39:19;4.90;99.90
12971;DHT22;6550;48.650;8.774;2022-12-07T18:41:49;4.90;99.90
12971;DHT22;6550;48.650;8.774;2022-12-07T18:44:16;5.00;99.90
12971;DHT22;6550;48.650;8.774;2022-12-07T18:46:43;4.90;99.90
12971;DHT22;6550;48.650;8.774;2022-12-07T18:49:13;4.90;99.90
12971;DHT22;6550;48.650;8.774;2022-12-07T18:51:41;4.90;99.90
12971;DHT22;6550;48.650;8.774;2022-12-07T18:54:10;4.90;99.90
12971;DHT22;6550;48.650;8.774;2022-12-07T18:56:40;4.80;99.90
12971;DHT22;6550;48.650;8.774;2022-12-07T18:59:11;4.80;99.90
12971;DHT22;6550;48.650;8.774;2022-12-07T19:02:00;4.80;99.90
12971;DHT22;6550;48.650;8.774;2022-12-07T19:04:29;4.70;99.90